CheckWX is a tool to help pilots better visualize weather data.  It is not intended as a substitute for an official pre-flight weather briefing.

15:15:42 UTC

KELD METAR
South Arkansas Regional at Goodwin Field Airport
El Dorado, Arkansas, USA
Current

23 mins ago

KELD 051453Z AUTO 03004KT 7SM SCT007 BKN043 16/14 A3012 RMK AO2 SLP196 T01560144 53007
Observed
Apr-5 @ 14:53 UTC
Wind
  • 030° at 4 KTS
Visibility
Flight Rules
VFR
Cloud Levels
  • Scattered at 700' AGL
  • Broken at 4,300' AGL
Temperature
16°C / 61°F
Dewpoint
14°C / 57°F
Humidity
88%
Altimeter
30.12" Hg
Pressure
1020.02 hPa
Previous

39 mins ago

KELD 051437Z AUTO 04005KT 7SM SCT006 BKN043 16/14 A3011 RMK AO2 T01560144
Observed
Apr-5 @ 14:37 UTC
Wind
  • 040° at 5 KTS
Visibility
Flight Rules
VFR
Cloud Levels
  • Scattered at 600' AGL
  • Broken at 4,300' AGL
Temperature
16°C / 61°F
Dewpoint
14°C / 57°F
Humidity
88%
Altimeter
30.11" Hg
Pressure
1019.62 hPa
Previous

1 hour ago

KELD 051353Z AUTO 04005KT 6SM BR BKN005 OVC043 14/14 A3011 RMK AO2 SLP192 T01440144
Observed
Apr-5 @ 13:53 UTC
Wind
  • 040° at 5 KTS
Visibility
Flight Rules
IFR
Conditions
Mist
Cloud Levels
  • Broken at 500' AGL
  • Overcast at 4,300' AGL
Temperature
14°C / 57°F
Dewpoint
14°C / 57°F
Humidity
100%
Altimeter
30.11" Hg
Pressure
1019.62 hPa